Other Surface Observations
Issued by NWS Great Falls, MT

Home | Current Version | Previous Version | Graphics & Text | Print | Product List | Glossary On
Versions: 1 2 3 4 5 6 7 8 9 10 11 12 13 14 15 16 17 18 19 20 21 22 23 24 25 26 27 28 29 30 31 32 33 34 35 36 37 38 39 40 41 42 43 44 45 46 47 48 49 50
000
SXUS55 KTFX 281053
OSOTFX
AREA AWOS OBSERVATIONS
NATIONAL WEATHER SERVICE GREAT FALLS MT
0450 AM MDT THU MAY 28 2015

METAR KPWD 281045Z AUTO 00000KT 5SM 12/12 A2989 RMK PLENTYWOOD
METAR KPO1 281045Z AUTO 00000KT 11/11 A2988 RMK POPLAR
METAR KS71 281045Z AUTO 27004KT 9SM 09/09 A2995 RMK CHINOOK
METAR K6S0 281045Z AUTO 23009KT 10SM 11/06 A3002 RMK BIG TIMBER
METAR K79S 281045Z AUTO 23004KT 10SM 11/08 A2999 RMK FORT BENTON
METAR K38S 281045Z AUTO 00000KT 10SM 09/08 A3012 RMK DEER LODGE
METAR K3U3 281045Z AUTO 00000KT 10SM 07/06 A3008 RMK ANACONDA
METAR K6S5 281045Z AUTO 20006KT 10SM 11/08 A3008 RMK HAMILTON
METAR KS59 281045Z AUTO 15003KT 10SM 10/09 A3007 RMK LIBBY
METAR K88M 281045Z AUTO 00000KT 7SM 10/09 A3006 RMK EUREKA



USA.gov is the U.S. government's official web portal to all federal, state and local government web resources and services.